Time;durP1;ratioP1;P1;durP2;ratioP2;P2;SDS_P1;SDS_P2;PMS_P1;PMS_P2;Temp;Humidity;BMP_temperature;BMP_pressure;BME280_temperature;BME280_humidity;BME280_pressure;Samples;Min_cycle;Max_cycle;Signal;HPM_P1;HPM_P2
2023/12/18 00:00:13;;;;;;;6.95;5.10;;;;;;;;;;5036849;28;20056;-60
2023/12/18 00:02:39;;;;;;;6.93;5.35;;;;;;;;;;5038752;28;20526;-60
2023/12/18 00:05:04;;;;;;;6.57;5.20;;;;;;;;;;5036599;28;20032;-60
2023/12/18 00:07:30;;;;;;;6.70;5.10;;;;;;;;;;5042117;28;20109;-60
2023/12/18 00:09:55;;;;;;;7.43;5.40;;;;;;;;;;5040664;28;20094;-61
2023/12/18 00:12:20;;;;;;;7.28;5.40;;;;;;;;;;5047034;28;20148;-60
2023/12/18 00:14:45;;;;;;;6.63;5.18;;;;;;;;;;5002884;28;20041;-61
2023/12/18 00:17:11;;;;;;;7.70;5.68;;;;;;;;;;5007164;28;20478;-60
2023/12/18 00:19:36;;;;;;;7.85;5.40;;;;;;;;;;5031001;28;20246;-60
2023/12/18 00:22:02;;;;;;;6.63;5.10;;;;;;;;;;5042128;28;20121;-60
2023/12/18 00:24:27;;;;;;;6.80;5.55;;;;;;;;;;5019063;28;20542;-60
2023/12/18 00:26:52;;;;;;;6.43;5.00;;;;;;;;;;5048491;28;20768;-60
2023/12/18 00:29:18;;;;;;;6.35;4.90;;;;;;;;;;5014934;28;20067;-60
2023/12/18 00:31:43;;;;;;;6.70;5.00;;;;;;;;;;5030111;28;20065;-60
2023/12/18 00:34:08;;;;;;;6.53;5.10;;;;;;;;;;5034038;28;20041;-61
2023/12/18 00:36:34;;;;;;;6.40;5.43;;;;;;;;;;5038160;28;20049;-60
2023/12/18 00:38:59;;;;;;;7.20;5.38;;;;;;;;;;5037268;28;20048;-60
2023/12/18 00:41:24;;;;;;;7.20;5.80;;;;;;;;;;5023990;28;20087;-59
2023/12/18 00:43:50;;;;;;;7.50;5.28;;;;;;;;;;5043064;28;20095;-59
2023/12/18 00:46:15;;;;;;;7.70;5.53;;;;;;;;;;5013050;28;20042;-60
2023/12/18 00:48:40;;;;;;;6.88;5.07;;;;;;;;;;5045343;28;20183;-60
2023/12/18 00:51:08;;;;;;;6.78;5.25;;;;;;;;;;5044186;28;20470;-60
2023/12/18 00:53:33;;;;;;;6.88;5.55;;;;;;;;;;5041514;28;20478;-60
2023/12/18 00:55:58;;;;;;;7.30;5.15;;;;;;;;;;5048168;28;20048;-60
2023/12/18 00:58:24;;;;;;;6.57;5.25;;;;;;;;;;5025557;28;20040;-60
2023/12/18 01:00:49;;;;;;;8.30;5.38;;;;;;;;;;5048033;28;20061;-60
2023/12/18 01:03:14;;;;;;;6.90;5.45;;;;;;;;;;5048558;28;20033;-61
2023/12/18 01:05:39;;;;;;;6.60;5.25;;;;;;;;;;5035899;28;20071;-60
2023/12/18 01:08:05;;;;;;;7.20;5.88;;;;;;;;;;5047512;28;20463;-60
2023/12/18 01:10:30;;;;;;;8.23;5.72;;;;;;;;;;5023426;28;20029;-60
2023/12/18 01:12:56;;;;;;;6.70;5.43;;;;;;;;;;5030093;28;20040;-60
2023/12/18 01:15:21;;;;;;;7.55;5.50;;;;;;;;;;5040147;28;20040;-60
2023/12/18 01:17:46;;;;;;;8.10;5.30;;;;;;;;;;5040681;28;20042;-60
2023/12/18 01:20:11;;;;;;;8.68;6.20;;;;;;;;;;5027932;28;20469;-60
2023/12/18 01:22:37;;;;;;;6.90;5.65;;;;;;;;;;5050144;28;20426;-60
2023/12/18 01:25:02;;;;;;;7.00;5.60;;;;;;;;;;5030681;28;20395;-60
2023/12/18 01:27:28;;;;;;;7.88;5.53;;;;;;;;;;5030500;28;20086;-60
2023/12/18 01:29:53;;;;;;;6.65;5.57;;;;;;;;;;5053702;28;20480;-60
2023/12/18 01:32:18;;;;;;;7.03;5.85;;;;;;;;;;5048367;28;20044;-60
2023/12/18 01:34:44;;;;;;;7.82;5.85;;;;;;;;;;5045926;28;20609;-60
2023/12/18 01:37:09;;;;;;;8.23;5.85;;;;;;;;;;5044721;28;20099;-60
2023/12/18 01:39:36;;;;;;;6.50;5.28;;;;;;;;;;5048533;28;20036;-60
2023/12/18 01:42:01;;;;;;;7.57;5.90;;;;;;;;;;5037217;28;20103;-60
2023/12/18 01:44:27;;;;;;;7.65;5.63;;;;;;;;;;5011824;28;20040;-60
2023/12/18 01:46:52;;;;;;;6.65;5.45;;;;;;;;;;5030420;28;20041;-60
2023/12/18 01:49:17;;;;;;;7.43;5.78;;;;;;;;;;5022473;28;20045;-58
2023/12/18 01:51:43;;;;;;;8.27;6.00;;;;;;;;;;5022041;28;20056;-60
2023/12/18 01:54:08;;;;;;;7.53;5.78;;;;;;;;;;5041032;28;20043;-59
2023/12/18 01:56:33;;;;;;;8.00;6.10;;;;;;;;;;5060929;28;20143;-58
2023/12/18 01:58:59;;;;;;;7.78;5.82;;;;;;;;;;5060934;28;20037;-60
2023/12/18 02:01:25;;;;;;;7.18;5.90;;;;;;;;;;5041158;28;20045;-59
2023/12/18 02:03:50;;;;;;;7.68;5.95;;;;;;;;;;5041743;28;20049;-59
2023/12/18 02:06:16;;;;;;;8.05;6.00;;;;;;;;;;5052446;28;20033;-59
2023/12/18 02:08:41;;;;;;;7.13;5.35;;;;;;;;;;5031445;28;20103;-59
2023/12/18 02:11:06;;;;;;;8.20;6.00;;;;;;;;;;5054640;28;20060;-59
2023/12/18 02:13:32;;;;;;;7.45;5.75;;;;;;;;;;5045275;28;20124;-59
2023/12/18 02:15:57;;;;;;;8.13;6.15;;;;;;;;;;5050023;28;20071;-58
2023/12/18 02:18:22;;;;;;;8.35;5.97;;;;;;;;;;5021073;28;20573;-59
2023/12/18 02:20:48;;;;;;;7.70;6.50;;;;;;;;;;5037201;28;20629;-59
2023/12/18 02:23:13;;;;;;;7.38;5.93;;;;;;;;;;5055202;28;20127;-60
2023/12/18 02:25:38;;;;;;;6.82;5.30;;;;;;;;;;5058110;28;20094;-60
2023/12/18 02:28:04;;;;;;;8.35;6.30;;;;;;;;;;5038995;28;20083;-61
2023/12/18 02:30:30;;;;;;;7.45;5.63;;;;;;;;;;5028805;28;20025;-60
2023/12/18 02:32:56;;;;;;;8.02;6.22;;;;;;;;;;5023658;28;20048;-59
2023/12/18 02:35:21;;;;;;;7.63;5.78;;;;;;;;;;5046829;28;20044;-59
2023/12/18 02:37:46;;;;;;;7.65;6.00;;;;;;;;;;5024318;28;20566;-60
2023/12/18 02:40:12;;;;;;;7.60;5.80;;;;;;;;;;5038342;28;20079;-60
2023/12/18 02:42:37;;;;;;;8.85;5.85;;;;;;;;;;5042361;28;20053;-61
2023/12/18 02:45:02;;;;;;;6.93;5.47;;;;;;;;;;5047681;28;20025;-59
2023/12/18 02:47:28;;;;;;;7.35;5.75;;;;;;;;;;5038037;28;20042;-60
2023/12/18 02:49:53;;;;;;;6.65;5.70;;;;;;;;;;5023895;28;20048;-60
2023/12/18 02:52:18;;;;;;;7.85;6.60;;;;;;;;;;5030816;28;20056;-60
2023/12/18 02:54:44;;;;;;;7.90;6.13;;;;;;;;;;5040451;28;20129;-60
2023/12/18 02:57:09;;;;;;;8.32;6.20;;;;;;;;;;5039675;28;20052;-60
2023/12/18 02:59:34;;;;;;;8.55;6.43;;;;;;;;;;5052730;28;20467;-60
2023/12/18 03:02:00;;;;;;;6.78;5.60;;;;;;;;;;5046354;28;20033;-61
2023/12/18 03:04:25;;;;;;;8.50;6.38;;;;;;;;;;5032632;28;20511;-60
2023/12/18 03:06:50;;;;;;;7.95;5.82;;;;;;;;;;5045939;28;20423;-60
2023/12/18 03:09:16;;;;;;;7.32;5.65;;;;;;;;;;5032643;28;20434;-61
2023/12/18 03:11:41;;;;;;;7.63;6.10;;;;;;;;;;5045873;28;20483;-58
2023/12/18 03:14:07;;;;;;;8.32;6.57;;;;;;;;;;5038932;28;20043;-59
2023/12/18 03:16:33;;;;;;;7.20;5.72;;;;;;;;;;5007760;28;20538;-59
2023/12/18 03:18:58;;;;;;;7.75;5.78;;;;;;;;;;5043806;28;20106;-60
2023/12/18 03:21:24;;;;;;;9.18;6.40;;;;;;;;;;5049427;28;20524;-60
2023/12/18 03:23:49;;;;;;;10.60;6.45;;;;;;;;;;5052560;28;20460;-59
2023/12/18 03:26:14;;;;;;;7.22;5.75;;;;;;;;;;5033226;28;20547;-59
2023/12/18 03:28:40;;;;;;;8.57;5.78;;;;;;;;;;5028673;28;20042;-59
2023/12/18 03:31:05;;;;;;;7.20;5.70;;;;;;;;;;5045538;28;20095;-60
2023/12/18 03:33:30;;;;;;;7.75;6.35;;;;;;;;;;5045379;28;20049;-59
2023/12/18 03:35:55;;;;;;;8.10;6.00;;;;;;;;;;5042858;28;20148;-59
2023/12/18 03:38:21;;;;;;;7.45;5.95;;;;;;;;;;5056723;28;20169;-59
2023/12/18 03:40:46;;;;;;;8.27;6.30;;;;;;;;;;5045435;28;20041;-60
2023/12/18 03:43:11;;;;;;;8.05;6.10;;;;;;;;;;5028601;28;20623;-60
2023/12/18 03:45:37;;;;;;;7.95;6.20;;;;;;;;;;5029241;28;20033;-59
2023/12/18 03:48:02;;;;;;;6.93;5.88;;;;;;;;;;5038111;28;20055;-60
2023/12/18 03:50:28;;;;;;;7.25;6.00;;;;;;;;;;5049323;28;20065;-60
2023/12/18 03:52:53;;;;;;;7.63;6.32;;;;;;;;;;5048565;28;20430;-60
2023/12/18 03:55:18;;;;;;;7.82;5.57;;;;;;;;;;5047528;28;20032;-59
2023/12/18 03:57:43;;;;;;;8.10;5.90;;;;;;;;;;5047218;28;20036;-59
2023/12/18 04:00:09;;;;;;;8.43;5.72;;;;;;;;;;5034130;28;20087;-59
2023/12/18 04:02:35;;;;;;;7.15;6.15;;;;;;;;;;5019168;28;20040;-60
2023/12/18 04:05:00;;;;;;;6.65;5.50;;;;;;;;;;5030651;28;20047;-60
2023/12/18 04:07:25;;;;;;;9.15;6.10;;;;;;;;;;5044319;28;20048;-59
2023/12/18 04:09:51;;;;;;;8.48;6.18;;;;;;;;;;5040192;28;20116;-60
2023/12/18 04:12:16;;;;;;;7.88;6.25;;;;;;;;;;5036157;28;20057;-60
2023/12/18 04:14:42;;;;;;;7.82;6.28;;;;;;;;;;5041960;28;20024;-60
2023/12/18 04:17:08;;;;;;;7.25;5.85;;;;;;;;;;5045524;28;20102;-59
2023/12/18 04:19:33;;;;;;;7.80;5.95;;;;;;;;;;5058104;28;20041;-60
2023/12/18 04:21:58;;;;;;;8.63;5.95;;;;;;;;;;5045240;28;20061;-60
2023/12/18 04:24:24;;;;;;;8.32;6.20;;;;;;;;;;5030675;28;20041;-60
2023/12/18 04:26:49;;;;;;;8.65;6.53;;;;;;;;;;5056691;28;20135;-60
2023/12/18 04:29:14;;;;;;;7.53;6.03;;;;;;;;;;5042836;28;20040;-60
2023/12/18 04:31:39;;;;;;;7.85;5.97;;;;;;;;;;5052621;28;20679;-60
2023/12/18 04:34:05;;;;;;;7.90;6.07;;;;;;;;;;5041432;28;20044;-59
2023/12/18 04:36:30;;;;;;;6.85;5.60;;;;;;;;;;5041185;28;20634;-60
2023/12/18 04:38:55;;;;;;;8.60;5.70;;;;;;;;;;5037474;28;20060;-60
2023/12/18 04:41:21;;;;;;;7.28;5.60;;;;;;;;;;5046156;28;20123;-59
2023/12/18 04:43:46;;;;;;;6.90;5.28;;;;;;;;;;5017176;28;20049;-60
2023/12/18 04:46:12;;;;;;;6.75;5.40;;;;;;;;;;5038130;28;20116;-60
2023/12/18 04:48:37;;;;;;;6.78;5.25;;;;;;;;;;5041958;28;20052;-59
2023/12/18 04:51:02;;;;;;;7.15;5.88;;;;;;;;;;5021048;28;20515;-60
2023/12/18 04:53:28;;;;;;;6.97;5.85;;;;;;;;;;5022734;28;20030;-60
2023/12/18 04:55:54;;;;;;;7.90;5.80;;;;;;;;;;5043142;28;22278;-60
2023/12/18 04:58:19;;;;;;;7.53;5.90;;;;;;;;;;5035343;28;20037;-61
2023/12/18 05:00:44;;;;;;;7.43;5.57;;;;;;;;;;5037409;28;20199;-60
2023/12/18 05:03:09;;;;;;;7.45;5.90;;;;;;;;;;5041929;28;20583;-60
2023/12/18 05:05:35;;;;;;;6.47;5.65;;;;;;;;;;5026598;28;20550;-59
2023/12/18 05:08:00;;;;;;;7.47;5.72;;;;;;;;;;5035605;28;20041;-60
2023/12/18 05:10:25;;;;;;;6.82;5.45;;;;;;;;;;5033244;28;20111;-60
2023/12/18 05:12:51;;;;;;;6.40;5.40;;;;;;;;;;5037985;28;20075;-61
2023/12/18 05:15:16;;;;;;;6.80;5.72;;;;;;;;;;5031055;28;20045;-60
2023/12/18 05:17:41;;;;;;;6.18;5.15;;;;;;;;;;5030030;28;20123;-61
2023/12/18 05:20:08;;;;;;;6.65;5.03;;;;;;;;;;5050130;28;20064;-61
2023/12/18 05:22:34;;;;;;;7.40;5.95;;;;;;;;;;5032632;28;20111;-61
2023/12/18 05:24:59;;;;;;;7.07;5.35;;;;;;;;;;5030372;28;20112;-61
2023/12/18 05:27:25;;;;;;;6.65;5.22;;;;;;;;;;5036619;28;20064;-61
2023/12/18 05:29:50;;;;;;;7.10;5.35;;;;;;;;;;5037115;28;20039;-62
2023/12/18 05:32:15;;;;;;;6.82;5.45;;;;;;;;;;5040768;28;20530;-62
2023/12/18 05:34:41;;;;;;;6.25;5.07;;;;;;;;;;5037839;28;20215;-59
2023/12/18 05:37:06;;;;;;;7.88;5.95;;;;;;;;;;5043671;28;20128;-61
2023/12/18 05:39:31;;;;;;;6.55;5.50;;;;;;;;;;5038019;28;20029;-60
2023/12/18 05:41:57;;;;;;;7.45;5.63;;;;;;;;;;5042814;28;20131;-61
2023/12/18 05:44:22;;;;;;;6.63;5.28;;;;;;;;;;5022159;28;20037;-61
2023/12/18 05:46:47;;;;;;;7.30;5.45;;;;;;;;;;5042706;28;20048;-60
2023/12/18 05:49:13;;;;;;;6.90;5.32;;;;;;;;;;5026193;28;20045;-59
2023/12/18 05:51:38;;;;;;;6.85;5.38;;;;;;;;;;5026486;28;20389;-60
2023/12/18 05:54:03;;;;;;;7.07;5.20;;;;;;;;;;5042226;28;20534;-58
2023/12/18 05:56:29;;;;;;;7.15;5.45;;;;;;;;;;5044366;28;20087;-62
2023/12/18 05:58:55;;;;;;;6.47;5.28;;;;;;;;;;5027988;28;20052;-60
2023/12/18 06:01:21;;;;;;;6.43;5.28;;;;;;;;;;5017426;28;20639;-60
2023/12/18 06:03:46;;;;;;;11.23;5.63;;;;;;;;;;5020499;28;20648;-62
2023/12/18 06:06:11;;;;;;;7.95;5.80;;;;;;;;;;5027269;28;20025;-60
2023/12/18 06:08:37;;;;;;;7.22;5.70;;;;;;;;;;5025993;28;20033;-59
2023/12/18 06:11:03;;;;;;;7.28;5.68;;;;;;;;;;5033055;28;20530;-60
2023/12/18 06:13:29;;;;;;;6.82;5.38;;;;;;;;;;5041168;28;20434;-61
2023/12/18 06:15:54;;;;;;;6.13;4.97;;;;;;;;;;5025397;28;20223;-60
2023/12/18 06:18:19;;;;;;;6.43;5.07;;;;;;;;;;5041580;28;20131;-59
2023/12/18 06:20:45;;;;;;;6.50;4.88;;;;;;;;;;5043392;28;20048;-57
2023/12/18 06:23:10;;;;;;;6.75;5.38;;;;;;;;;;5041931;28;20037;-62
2023/12/18 06:25:35;;;;;;;8.30;5.03;;;;;;;;;;5039889;28;20087;-61
2023/12/18 06:28:01;;;;;;;7.43;5.60;;;;;;;;;;5037534;28;20055;-60
2023/12/18 06:30:26;;;;;;;6.03;4.72;;;;;;;;;;5040065;28;20075;-61
2023/12/18 06:32:51;;;;;;;6.22;4.68;;;;;;;;;;5039921;28;20059;-60
2023/12/18 06:35:17;;;;;;;6.38;4.93;;;;;;;;;;5018308;28;20052;-60
2023/12/18 06:37:42;;;;;;;6.70;4.88;;;;;;;;;;5019065;28;20049;-59
2023/12/18 06:40:08;;;;;;;6.18;4.88;;;;;;;;;;5026464;28;20196;-59
2023/12/18 06:42:33;;;;;;;6.72;4.85;;;;;;;;;;5039601;28;20033;-59
2023/12/18 06:44:59;;;;;;;6.00;4.88;;;;;;;;;;5027594;28;20033;-59
2023/12/18 06:47:24;;;;;;;7.90;5.38;;;;;;;;;;5036510;28;20128;-59
2023/12/18 06:49:49;;;;;;;6.00;4.88;;;;;;;;;;5029298;28;20029;-59
2023/12/18 06:52:15;;;;;;;6.82;5.10;;;;;;;;;;5041691;28;20076;-59
2023/12/18 06:54:40;;;;;;;8.35;4.90;;;;;;;;;;5041220;28;20037;-59
2023/12/18 06:57:06;;;;;;;10.05;4.93;;;;;;;;;;5034352;28;20869;-59
2023/12/18 06:59:31;;;;;;;7.65;5.18;;;;;;;;;;5041849;28;20126;-59
2023/12/18 07:01:56;;;;;;;7.75;5.18;;;;;;;;;;5038115;28;20041;-60
2023/12/18 07:04:22;;;;;;;11.02;5.03;;;;;;;;;;5024794;28;20040;-59
2023/12/18 07:06:47;;;;;;;13.25;5.32;;;;;;;;;;5035826;28;20036;-60
2023/12/18 07:09:12;;;;;;;11.55;5.53;;;;;;;;;;5038374;28;20222;-59
2023/12/18 07:11:37;;;;;;;11.55;5.35;;;;;;;;;;5039631;28;20040;-60
2023/12/18 07:14:03;;;;;;;8.60;5.30;;;;;;;;;;5027824;28;20044;-60
2023/12/18 07:16:28;;;;;;;10.98;5.30;;;;;;;;;;5028172;28;20529;-60
2023/12/18 07:18:55;;;;;;;9.68;5.35;;;;;;;;;;5049049;28;20521;-59
2023/12/18 07:21:20;;;;;;;10.10;5.72;;;;;;;;;;5043808;28;20423;-59
2023/12/18 07:23:45;;;;;;;15.20;5.78;;;;;;;;;;5035658;28;20059;-60
2023/12/18 07:26:12;;;;;;;8.63;5.38;;;;;;;;;;5055381;28;20037;-60
2023/12/18 07:28:38;;;;;;;11.75;5.43;;;;;;;;;;5031467;28;20037;-60
2023/12/18 07:31:04;;;;;;;9.52;5.03;;;;;;;;;;5026364;28;20112;-60
2023/12/18 07:33:29;;;;;;;18.08;12.27;;;;;;;;;;5025814;28;20606;-59
2023/12/18 07:35:55;;;;;;;12.63;6.50;;;;;;;;;;5023756;28;20041;-61
2023/12/18 07:38:20;;;;;;;10.50;5.53;;;;;;;;;;5037023;28;20509;-60
2023/12/18 07:40:45;;;;;;;14.80;6.05;;;;;;;;;;5042237;28;20037;-61
2023/12/18 07:43:11;;;;;;;11.68;5.65;;;;;;;;;;5040074;28;20041;-61
2023/12/18 07:45:36;;;;;;;11.18;5.35;;;;;;;;;;5044250;28;20539;-62
2023/12/18 07:48:01;;;;;;;14.43;5.75;;;;;;;;;;5041584;28;20041;-60
2023/12/18 07:50:27;;;;;;;10.88;5.65;;;;;;;;;;5038125;28;20044;-61
2023/12/18 07:52:52;;;;;;;10.90;5.72;;;;;;;;;;5025254;28;20037;-61
2023/12/18 07:55:17;;;;;;;11.52;5.38;;;;;;;;;;5046032;28;20035;-61
2023/12/18 07:57:43;;;;;;;12.85;5.70;;;;;;;;;;5034978;28;20053;-60
2023/12/18 08:00:08;;;;;;;9.63;5.55;;;;;;;;;;5054557;28;20047;-60
2023/12/18 08:02:34;;;;;;;11.75;5.78;;;;;;;;;;5022955;28;20045;-62
2023/12/18 08:05:00;;;;;;;12.63;5.50;;;;;;;;;;5036326;28;20119;-61
2023/12/18 08:07:25;;;;;;;15.63;6.35;;;;;;;;;;5039200;28;20052;-61
2023/12/18 08:09:50;;;;;;;13.02;5.25;;;;;;;;;;5036816;28;20067;-61
2023/12/18 08:12:16;;;;;;;13.95;5.82;;;;;;;;;;5042248;28;20049;-61
2023/12/18 08:14:44;;;;;;;9.32;5.22;;;;;;;;;;5042318;28;20043;-61
2023/12/18 08:17:11;;;;;;;11.00;5.75;;;;;;;;;;5049491;28;20060;-61
2023/12/18 08:19:36;;;;;;;14.52;6.20;;;;;;;;;;5026092;28;20049;-60
2023/12/18 08:22:01;;;;;;;13.95;5.70;;;;;;;;;;5024876;28;20067;-59
2023/12/18 08:24:27;;;;;;;10.18;5.30;;;;;;;;;;5035796;28;20039;-61
2023/12/18 08:26:52;;;;;;;9.98;5.65;;;;;;;;;;5044572;28;20029;-60
2023/12/18 08:29:17;;;;;;;9.15;5.30;;;;;;;;;;5028452;28;20041;-61
2023/12/18 08:31:43;;;;;;;11.32;5.50;;;;;;;;;;5025939;28;20063;-61
2023/12/18 08:34:08;;;;;;;9.00;5.45;;;;;;;;;;5037846;28;20052;-60
2023/12/18 08:36:36;;;;;;;11.52;5.72;;;;;;;;;;5015363;28;20065;-64
2023/12/18 08:39:01;;;;;;;10.88;6.15;;;;;;;;;;5028269;28;20546;-62
2023/12/18 08:41:26;;;;;;;10.27;6.13;;;;;;;;;;5040030;28;20044;-61
2023/12/18 08:43:51;;;;;;;8.65;5.30;;;;;;;;;;5042800;28;20042;-61
2023/12/18 08:46:17;;;;;;;10.98;5.25;;;;;;;;;;5045447;28;20116;-60
2023/12/18 08:48:42;;;;;;;10.02;5.53;;;;;;;;;;5026917;28;20375;-59
2023/12/18 08:51:07;;;;;;;10.07;5.63;;;;;;;;;;5027339;28;20041;-61
2023/12/18 08:53:33;;;;;;;8.88;5.93;;;;;;;;;;5034971;28;20036;-61
2023/12/18 08:55:59;;;;;;;9.70;5.60;;;;;;;;;;5036962;28;20112;-62
2023/12/18 08:58:25;;;;;;;10.15;6.22;;;;;;;;;;5000421;28;20045;-61
2023/12/18 09:00:52;;;;;;;10.75;5.72;;;;;;;;;;5036912;28;20463;-60
2023/12/18 09:03:18;;;;;;;10.20;6.13;;;;;;;;;;5047753;28;20032;-62
2023/12/18 09:05:44;;;;;;;10.02;5.93;;;;;;;;;;5008298;28;20030;-61
2023/12/18 09:08:11;;;;;;;9.43;5.93;;;;;;;;;;5030563;28;20477;-60
2023/12/18 09:10:36;;;;;;;8.95;6.10;;;;;;;;;;5033947;28;20017;-61
2023/12/18 09:13:02;;;;;;;10.70;6.15;;;;;;;;;;5053837;28;20411;-61
2023/12/18 09:15:27;;;;;;;9.93;5.65;;;;;;;;;;5035921;28;20029;-59
2023/12/18 09:17:52;;;;;;;9.45;5.78;;;;;;;;;;5039449;28;20410;-60
2023/12/18 09:20:18;;;;;;;9.10;5.75;;;;;;;;;;5035985;28;20056;-59
2023/12/18 09:22:46;;;;;;;9.60;5.70;;;;;;;;;;5004732;28;20112;-58
2023/12/18 09:25:11;;;;;;;7.43;5.88;;;;;;;;;;5019729;28;20056;-61
2023/12/18 09:27:36;;;;;;;10.05;6.10;;;;;;;;;;5047726;28;20056;-59
2023/12/18 09:30:02;;;;;;;8.60;6.10;;;;;;;;;;5044682;28;20024;-59
2023/12/18 09:32:27;;;;;;;8.85;5.60;;;;;;;;;;5043405;28;20029;-58
2023/12/18 09:34:52;;;;;;;10.77;6.10;;;;;;;;;;5034043;28;20388;-59
2023/12/18 09:37:18;;;;;;;8.02;5.72;;;;;;;;;;5045533;28;20029;-59
2023/12/18 09:39:43;;;;;;;10.65;6.22;;;;;;;;;;5019078;28;20085;-60
2023/12/18 09:42:09;;;;;;;8.65;6.20;;;;;;;;;;5024913;28;20021;-59
2023/12/18 09:44:35;;;;;;;8.20;6.22;;;;;;;;;;5025190;28;20020;-59
2023/12/18 09:47:00;;;;;;;7.22;5.45;;;;;;;;;;5027279;28;20025;-59
2023/12/18 09:49:25;;;;;;;10.18;6.25;;;;;;;;;;5047229;28;20032;-59
2023/12/18 09:51:53;;;;;;;9.77;6.45;;;;;;;;;;5042740;28;20025;-59
2023/12/18 09:54:22;;;;;;;9.65;6.28;;;;;;;;;;5016972;28;20029;-60
2023/12/18 09:56:48;;;;;;;10.43;6.80;;;;;;;;;;5017705;28;20029;-59
2023/12/18 09:59:14;;;;;;;12.15;6.40;;;;;;;;;;5024690;28;20041;-60
2023/12/18 10:01:39;;;;;;;9.75;6.68;;;;;;;;;;5041580;28;20090;-59
2023/12/18 10:04:04;;;;;;;8.95;6.95;;;;;;;;;;5026476;28;20041;-61
2023/12/18 10:06:31;;;;;;;11.00;7.05;;;;;;;;;;5008504;28;20029;-62
2023/12/18 10:08:57;;;;;;;10.63;6.97;;;;;;;;;;5022393;28;20055;-62
2023/12/18 10:11:25;;;;;;;10.13;7.22;;;;;;;;;;5037007;28;20037;-60
2023/12/18 10:13:51;;;;;;;9.07;6.72;;;;;;;;;;5042103;28;20558;-61
2023/12/18 10:16:16;;;;;;;9.57;6.85;;;;;;;;;;5036166;28;20049;-60
2023/12/18 10:18:42;;;;;;;10.40;7.40;;;;;;;;;;5044395;28;20774;-61
2023/12/18 10:21:07;;;;;;;9.45;6.85;;;;;;;;;;5046078;28;20099;-62
2023/12/18 10:23:35;;;;;;;10.68;7.22;;;;;;;;;;5013439;28;20033;-59
2023/12/18 10:26:03;;;;;;;9.65;6.90;;;;;;;;;;5044470;28;20037;-61
2023/12/18 10:28:29;;;;;;;9.85;7.43;;;;;;;;;;5040790;28;20113;-62
2023/12/18 10:30:55;;;;;;;9.15;7.07;;;;;;;;;;5041447;28;20415;-62
2023/12/18 10:33:21;;;;;;;12.05;7.13;;;;;;;;;;5019887;28;20041;-61
2023/12/18 10:35:47;;;;;;;9.00;6.72;;;;;;;;;;5019708;28;20037;-61
2023/12/18 10:38:13;;;;;;;10.50;7.03;;;;;;;;;;5039801;28;20036;-61
2023/12/18 10:40:38;;;;;;;10.32;7.45;;;;;;;;;;5038061;28;20458;-61
2023/12/18 10:43:13;;;;;;;10.88;7.78;;;;;;;;;;5015124;28;20065;-59
2023/12/18 10:45:39;;;;;;;11.23;7.68;;;;;;;;;;5042024;28;20037;-61
2023/12/18 10:48:04;;;;;;;10.23;7.30;;;;;;;;;;5026671;28;20044;-60
2023/12/18 10:50:33;;;;;;;11.43;7.85;;;;;;;;;;5016704;28;20079;-60
2023/12/18 10:52:58;;;;;;;9.45;7.35;;;;;;;;;;5023080;28;20527;-61
2023/12/18 10:55:24;;;;;;;11.50;8.27;;;;;;;;;;5034647;28;20123;-61
2023/12/18 10:57:49;;;;;;;12.27;7.78;;;;;;;;;;5038024;28;20092;-61
2023/12/18 11:00:15;;;;;;;9.77;7.43;;;;;;;;;;5035283;28;20128;-60
2023/12/18 11:02:41;;;;;;;11.38;7.78;;;;;;;;;;5039459;28;20047;-60
2023/12/18 11:05:06;;;;;;;10.50;7.88;;;;;;;;;;5039377;28;20434;-62
2023/12/18 11:07:31;;;;;;;10.57;7.97;;;;;;;;;;5016185;28;20067;-60
2023/12/18 11:09:58;;;;;;;11.68;8.25;;;;;;;;;;5037214;28;21059;-61
2023/12/18 11:12:23;;;;;;;11.57;8.63;;;;;;;;;;5030458;28;20041;-62
2023/12/18 11:15:07;;;;;;;9.98;8.02;;;;;;;;;;5023461;28;20043;-60
2023/12/18 11:18:02;;;;;;;10.38;8.38;;;;;;;;;;5039460;28;20180;-63
2023/12/18 11:20:40;;;;;;;11.35;8.60;;;;;;;;;;4982079;28;20541;-62
2023/12/18 11:23:05;;;;;;;11.38;8.32;;;;;;;;;;5002241;28;20036;-62
2023/12/18 11:25:32;;;;;;;10.30;7.80;;;;;;;;;;5040254;28;20209;-61
2023/12/18 11:27:59;;;;;;;11.73;8.10;;;;;;;;;;5037253;28;20039;-59
2023/12/18 11:30:24;;;;;;;11.15;8.63;;;;;;;;;;5016680;28;20094;-60
2023/12/18 11:32:50;;;;;;;11.10;7.70;;;;;;;;;;5032849;28;20024;-61
2023/12/18 11:35:15;;;;;;;10.23;7.63;;;;;;;;;;5035534;28;20543;-63
2023/12/18 11:37:42;;;;;;;9.32;7.80;;;;;;;;;;5036835;28;20040;-61
2023/12/18 11:40:28;;;;;;;10.38;7.53;;;;;;;;;;5037020;28;20040;-61
2023/12/18 11:42:53;;;;;;;9.02;7.38;;;;;;;;;;5003859;28;20863;-63
2023/12/18 11:45:20;;;;;;;10.55;7.25;;;;;;;;;;5025663;28;20025;-61
2023/12/18 11:47:45;;;;;;;11.02;7.38;;;;;;;;;;5030628;28;20052;-60
2023/12/18 11:50:10;;;;;;;9.13;7.25;;;;;;;;;;5035246;28;20325;-60
2023/12/18 11:52:35;;;;;;;9.20;7.63;;;;;;;;;;5002238;28;20566;-61
2023/12/18 11:55:01;;;;;;;10.30;7.78;;;;;;;;;;5039850;28;20025;-62
2023/12/18 11:57:26;;;;;;;10.30;7.10;;;;;;;;;;5039023;28;20044;-61
2023/12/18 11:59:52;;;;;;;10.18;6.90;;;;;;;;;;5036968;28;20499;-62
2023/12/18 12:02:18;;;;;;;10.32;7.55;;;;;;;;;;5032456;28;20086;-58
2023/12/18 12:04:43;;;;;;;10.57;7.93;;;;;;;;;;5023748;28;20147;-59
2023/12/18 12:07:12;;;;;;;9.40;7.20;;;;;;;;;;5032975;28;20801;-61
2023/12/18 12:09:42;;;;;;;9.70;7.55;;;;;;;;;;5033500;28;20041;-59
2023/12/18 12:12:07;;;;;;;9.63;7.35;;;;;;;;;;5014606;28;22323;-60
2023/12/18 12:14:33;;;;;;;9.63;7.55;;;;;;;;;;5037130;28;20589;-59
2023/12/18 12:17:04;;;;;;;9.63;7.43;;;;;;;;;;5022258;28;20049;-59
2023/12/18 12:19:33;;;;;;;10.02;7.43;;;;;;;;;;5030795;28;20037;-59
2023/12/18 12:21:58;;;;;;;11.13;7.95;;;;;;;;;;5034598;28;20451;-60
2023/12/18 12:24:24;;;;;;;9.63;7.80;;;;;;;;;;5023187;28;20048;-59
2023/12/18 12:26:49;;;;;;;8.85;7.55;;;;;;;;;;5013752;28;20051;-61
2023/12/18 12:29:14;;;;;;;11.02;7.85;;;;;;;;;;5037383;28;20089;-61
2023/12/18 12:31:39;;;;;;;9.80;7.70;;;;;;;;;;5015544;28;20080;-60
2023/12/18 12:34:05;;;;;;;9.27;7.25;;;;;;;;;;5037958;28;20025;-60
2023/12/18 12:36:30;;;;;;;9.35;7.35;;;;;;;;;;5033216;28;20073;-60
2023/12/18 12:38:56;;;;;;;10.30;8.07;;;;;;;;;;5035188;28;20130;-61
2023/12/18 12:41:21;;;;;;;9.85;7.88;;;;;;;;;;5029794;28;20051;-61
2023/12/18 12:43:47;;;;;;;9.00;7.47;;;;;;;;;;5015945;28;20482;-61
2023/12/18 12:46:13;;;;;;;9.82;7.75;;;;;;;;;;5016258;28;20040;-60
2023/12/18 12:48:38;;;;;;;9.75;7.57;;;;;;;;;;5036997;28;20055;-61
2023/12/18 12:51:05;;;;;;;8.45;7.03;;;;;;;;;;5034168;28;20045;-61
2023/12/18 12:53:32;;;;;;;9.07;7.80;;;;;;;;;;5032486;28;20041;-59
2023/12/18 12:55:58;;;;;;;9.82;7.47;;;;;;;;;;5033280;28;20102;-59
2023/12/18 12:58:24;;;;;;;9.75;7.43;;;;;;;;;;5036397;28;20033;-59
2023/12/18 13:00:49;;;;;;;8.60;7.07;;;;;;;;;;5045676;28;20044;-59
2023/12/18 13:03:15;;;;;;;8.57;7.22;;;;;;;;;;5027815;28;20060;-59
2023/12/18 13:05:40;;;;;;;9.32;7.53;;;;;;;;;;5040306;28;20104;-60
2023/12/18 13:08:05;;;;;;;9.63;7.35;;;;;;;;;;5041592;28;20056;-61
2023/12/18 13:10:32;;;;;;;9.48;7.32;;;;;;;;;;5029755;28;20082;-60
2023/12/18 13:12:57;;;;;;;8.85;7.00;;;;;;;;;;5043539;28;20041;-60
2023/12/18 13:15:23;;;;;;;8.95;7.20;;;;;;;;;;5041202;28;20045;-59
2023/12/18 13:17:48;;;;;;;8.15;6.65;;;;;;;;;;5043981;28;20185;-60
2023/12/18 13:20:15;;;;;;;10.38;7.50;;;;;;;;;;5021733;28;20475;-60
2023/12/18 13:22:40;;;;;;;8.90;7.20;;;;;;;;;;5021735;28;20156;-60
2023/12/18 13:25:06;;;;;;;9.15;7.10;;;;;;;;;;5032933;28;21471;-60
2023/12/18 13:27:32;;;;;;;8.75;6.78;;;;;;;;;;5039041;28;20045;-61
2023/12/18 13:29:57;;;;;;;9.40;6.90;;;;;;;;;;5024862;28;20022;-60
2023/12/18 13:32:25;;;;;;;10.07;6.93;;;;;;;;;;5041569;28;20108;-59
2023/12/18 13:34:51;;;;;;;9.18;7.28;;;;;;;;;;5037882;28;20029;-59
2023/12/18 13:37:16;;;;;;;9.93;7.38;;;;;;;;;;5036750;28;20055;-60
2023/12/18 13:39:41;;;;;;;9.05;6.93;;;;;;;;;;5041574;28;20438;-59
2023/12/18 13:42:08;;;;;;;8.73;6.90;;;;;;;;;;5027752;28;20122;-60
2023/12/18 13:44:34;;;;;;;8.30;6.25;;;;;;;;;;5025776;28;20044;-60
2023/12/18 13:46:59;;;;;;;9.88;6.45;;;;;;;;;;5026119;28;20033;-59
2023/12/18 13:49:25;;;;;;;9.52;6.15;;;;;;;;;;5041665;28;20036;-60
2023/12/18 13:51:50;;;;;;;8.63;5.90;;;;;;;;;;5027649;28;20469;-60
2023/12/18 13:54:15;;;;;;;8.35;6.30;;;;;;;;;;5033416;28;20046;-58
2023/12/18 13:56:41;;;;;;;8.50;6.55;;;;;;;;;;5037611;28;20041;-59
2023/12/18 13:59:07;;;;;;;8.30;5.75;;;;;;;;;;5016776;28;20773;-60
2023/12/18 14:01:32;;;;;;;8.48;5.88;;;;;;;;;;5031415;28;20037;-60
2023/12/18 14:03:57;;;;;;;7.65;6.05;;;;;;;;;;5033128;28;20052;-60
2023/12/18 14:06:23;;;;;;;9.15;6.35;;;;;;;;;;5033590;28;20502;-61
2023/12/18 14:08:49;;;;;;;8.52;6.30;;;;;;;;;;5034772;28;20130;-60
2023/12/18 14:11:14;;;;;;;11.75;6.53;;;;;;;;;;5035259;28;20457;-61
2023/12/18 14:13:39;;;;;;;7.32;6.05;;;;;;;;;;5035293;28;20829;-60
2023/12/18 14:16:05;;;;;;;7.28;5.65;;;;;;;;;;5035387;28;20046;-59
2023/12/18 14:18:31;;;;;;;7.35;5.60;;;;;;;;;;5035761;28;20037;-60
2023/12/18 14:20:57;;;;;;;7.70;5.63;;;;;;;;;;5009150;28;20132;-61
2023/12/18 14:23:22;;;;;;;8.75;6.10;;;;;;;;;;5030714;28;20045;-61
2023/12/18 14:25:47;;;;;;;7.80;5.78;;;;;;;;;;5033752;28;20110;-61
2023/12/18 14:28:13;;;;;;;6.97;5.55;;;;;;;;;;5019055;28;20053;-60
2023/12/18 14:30:38;;;;;;;7.82;5.75;;;;;;;;;;5031665;28;20075;-59